KDEC/DEC METAR and TAF weather

Enter ICAO airport designator
Station Type Date Time Source
KDEC METAR 2018/04/23 10:54 UTC NOAA

KDEC 231054Z 05013KT 10SM FEW120 09/M02 A3007 RMK AO2 SLP182 T00891017


Station Type Date Time Source
KDEC Decoded METAR 2018/04/23 10:54 UTC NOAA

DECATUR AIRPORT, IL, United States (KDEC) 39-50N 88-52W 207M
Apr 23, 2018 - 06:54 AM EDT / 2018.04.23 1054 UTC
Wind: from the NE (050 degrees) at 15 MPH (13 KT):0
Visibility: 10 mile(s):0
Sky conditions: mostly clear
Temperature: 48.0 F (8.9 C)
Dew Point: 28.9 F (-1.7 C)
Relative Humidity: 47%
Pressure (altimeter): 30.07 in. Hg (1018 hPa)
ob: KDEC 231054Z 05013KT 10SM FEW120 09/M02 A3007 RMK AO2 SLP182 T00891017
cycle: 11

Station Type Date Time Source
KDEC TAF 2018/04/23 06:22 UTC NOAA

TAF KDEC 230520Z 2306/2406 06012KT P6SM BKN100
FM231600 07011G20KT P6SM BKN040
FM232100 07010G18KT P6SM VCSH BKN030
FM240000 07010KT P6SM VCSH BKN025


Example: see airport list